sim
Sign-in with your pilot id or email,
or register
Callsign
Passwort

Schedule Details

Flight Number: DLH2260
Departure: Munich Airport (EDDM) at 05:45
Arrival: Marseille Provence Airport (LFML) at 07:25
Route: Lufthansa Passenger Schedule. Enter filed route here before submitting Pirep.

Weather Information
Getting current METAR information for EDDM 220020Z VRB01KT 7000 3000NE R08L/0450N BCFG NSC 10/09 Q1015 NOSIG
Getting current METAR information for LFML 220030Z AUTO 13005KT CAVOK 20/18 Q1015 NOSIG

Schedule Frequency

Route Map